ビリニュス の空港の天気 - METARとTAF

ビリニュス国際空港 ( EYVI / VNO ) - リトアニア ビリニュス
飛行場実況気象(Metar)
観測時間11/30 12:50 EET (11/30 10:50 UTC)
風向・風速西南西 3m/s
視程10km以上
天気現象弱い雪
全天を覆う雲 雲底高度 150m
気温0℃
湿度93%
気圧1020hPa
METAREYVI 301050Z 25006KT 9999 -SN OVC005 M00/M01 Q1020 R19/2///95 NOSIG
過去の天気等 Google飛行場航空写真 Wunderground天気予報

過去48時間のMETAR

飛行場予報(TAF)
発表時間: 11/30 07:27 EET (11/30 05:27 UTC)
予報対象時間: 30日8時 EET ~ 1日8時 EET
風向・風速不定 2m/s
視程3000m
天気現象雪 もや
全天を覆う雲 雲底高度 60m
30日8時 EET ~ 30日12時 EET に一時的に
視程600m
天気現象氷霧
30日8時 EET ~ 30日12時 EET に 確率 40% で一時的に
天気現象氷霧雨
30日12時 EET ~ 30日13時 EET に徐々に
視程5000m
天気現象もや
全天を覆う雲 雲底高度 150m
30日13時 EET ~ 30日20時 EET に一時的に
視程1500m
天気現象
全天の8割程度の雲 雲底高度 60m
30日20時 EET ~ 30日21時 EET に徐々に
風向・風速南南西 7m/s
30日21時 EET ~ 1日8時 EET に一時的に
視程1500m
天気現象
全天の8割程度の雲 雲底高度 60m
TAF EYVI 300527Z 3006/0106 VRB04KT 3000 SN BR OVC002
TEMPO 3006/3010 0600 FZFG
PROB40 TEMPO 3006/3010 FZDZ
BECMG 3010/3011 5000 BR OVC005
TEMPO 3011/3018 1500 SN BKN002
BECMG 3018/3019 21014KT
TEMPO 3019/0106 1500 SN BKN002